createdAt,value
2023-05-13T00:01:29.794Z,15.03
2023-05-13T00:04:34.361Z,15.06
2023-05-13T00:07:38.575Z,15.09
2023-05-13T00:10:42.780Z,15.09
2023-05-13T00:13:46.916Z,15.02
2023-05-13T00:16:51.283Z,14.96
2023-05-13T00:19:55.686Z,14.99
2023-05-13T00:22:59.953Z,14.99
2023-05-13T00:26:04.204Z,14.95
2023-05-13T00:29:08.642Z,14.88
2023-05-13T00:32:12.997Z,14.88
2023-05-13T00:35:17.568Z,14.88
2023-05-13T00:38:22.043Z,14.89
2023-05-13T00:41:26.029Z,14.82
2023-05-13T00:44:30.512Z,14.77
2023-05-13T00:47:34.339Z,14.76
2023-05-13T00:50:39.315Z,14.76
2023-05-13T00:53:43.343Z,14.73
2023-05-13T00:56:47.546Z,14.71
2023-05-13T00:59:51.986Z,14.78
2023-05-13T01:03:19.302Z,14.73
2023-05-13T01:06:52.079Z,14.67
2023-05-13T01:10:11.738Z,14.66
2023-05-13T01:13:23.354Z,14.68
2023-05-13T01:16:37.181Z,14.67
2023-05-13T01:19:49.589Z,14.65
2023-05-13T01:22:53.902Z,14.66
2023-05-13T01:25:58.123Z,14.68
2023-05-13T01:29:02.306Z,14.68
2023-05-13T01:32:08.720Z,14.65
2023-05-13T01:35:14.965Z,14.71
2023-05-13T01:38:21.254Z,14.64
2023-05-13T01:41:25.400Z,14.65
2023-05-13T01:44:29.576Z,14.65
2023-05-13T01:47:33.609Z,14.65
2023-05-13T01:50:37.671Z,14.62
2023-05-13T01:53:41.841Z,14.63
2023-05-13T01:56:46.250Z,14.60
2023-05-13T01:59:50.561Z,14.54
2023-05-13T02:02:54.795Z,14.55
2023-05-13T02:05:58.661Z,14.46
2023-05-13T02:09:03.407Z,14.43
2023-05-13T02:12:08.189Z,14.30
2023-05-13T02:15:12.344Z,14.24
2023-05-13T02:18:16.381Z,14.24
2023-05-13T02:21:20.571Z,14.12
2023-05-13T02:24:25.811Z,14.08
2023-05-13T02:27:30.204Z,14.00
2023-05-13T02:30:34.352Z,14.00
2023-05-13T02:33:38.298Z,13.97
2023-05-13T02:36:42.661Z,13.92
2023-05-13T02:39:46.974Z,13.83
2023-05-13T02:42:51.476Z,13.74
2023-05-13T02:45:55.849Z,13.79
2023-05-13T02:48:59.936Z,13.75
2023-05-13T02:52:04.241Z,13.69
2023-05-13T02:55:09.476Z,13.64
2023-05-13T02:58:13.631Z,13.59
2023-05-13T03:01:17.689Z,13.56
2023-05-13T03:04:21.603Z,13.52
2023-05-13T03:07:25.532Z,13.59
2023-05-13T03:10:29.895Z,13.56
2023-05-13T03:13:33.914Z,13.55
2023-05-13T03:16:37.912Z,13.53
2023-05-13T03:19:41.966Z,13.47
2023-05-13T03:22:46.180Z,13.43
2023-05-13T03:25:50.532Z,13.36
2023-05-13T03:28:54.522Z,13.30
2023-05-13T03:31:58.982Z,13.27
2023-05-13T03:35:03.648Z,13.29
2023-05-13T03:38:07.672Z,13.28
2023-05-13T03:41:11.638Z,13.29
2023-05-13T03:44:15.563Z,13.29
2023-05-13T03:47:19.550Z,13.27
2023-05-13T03:50:24.119Z,13.29
2023-05-13T03:53:28.761Z,13.33
2023-05-13T03:56:32.875Z,13.34
2023-05-13T03:59:36.745Z,13.37
2023-05-13T04:02:40.942Z,13.39
2023-05-13T04:05:49.360Z,13.33
2023-05-13T04:08:53.468Z,13.34
2023-05-13T04:11:57.770Z,13.38
2023-05-13T04:15:01.846Z,13.42
2023-05-13T04:18:06.457Z,13.40
2023-05-13T04:21:11.326Z,13.46
2023-05-13T04:24:15.233Z,13.56
2023-05-13T04:27:19.296Z,13.53
2023-05-13T04:30:23.921Z,13.48
2023-05-13T04:33:27.964Z,13.54
2023-05-13T04:36:32.165Z,13.60
2023-05-13T04:39:36.468Z,13.58
2023-05-13T04:42:41.216Z,13.59
2023-05-13T04:45:47.819Z,13.61
2023-05-13T04:48:52.093Z,13.69
2023-05-13T04:51:57.332Z,13.79
2023-05-13T04:55:01.266Z,13.80
2023-05-13T04:58:05.473Z,13.81
2023-05-13T05:01:09.890Z,13.82
2023-05-13T05:04:14.106Z,13.86
2023-05-13T05:07:18.174Z,13.91
2023-05-13T05:10:22.347Z,13.95
2023-05-13T05:13:26.574Z,13.99
2023-05-13T05:16:30.680Z,14.05
2023-05-13T05:19:34.527Z,14.11
2023-05-13T05:22:39.043Z,14.15
2023-05-13T05:25:43.249Z,14.10
2023-05-13T05:28:47.337Z,14.16
2023-05-13T05:31:51.526Z,14.33
2023-05-13T05:34:55.593Z,14.44
2023-05-13T05:37:59.497Z,14.44
2023-05-13T05:41:03.591Z,14.47
2023-05-13T05:44:07.943Z,14.51
2023-05-13T05:47:11.881Z,14.57
2023-05-13T05:50:17.725Z,14.63
2023-05-13T05:53:22.026Z,14.71
2023-05-13T05:56:26.256Z,14.77
2023-05-13T05:59:30.821Z,14.85
2023-05-13T06:02:34.901Z,14.96
2023-05-13T06:05:39.364Z,15.04
2023-05-13T06:08:43.323Z,15.13
2023-05-13T06:11:47.720Z,15.21
2023-05-13T06:14:51.991Z,15.19
2023-05-13T06:17:57.015Z,15.23
2023-05-13T06:21:01.444Z,15.34
2023-05-13T06:24:05.648Z,15.47
2023-05-13T06:27:11.495Z,15.56
2023-05-13T06:30:16.070Z,15.59
2023-05-13T06:33:20.520Z,15.64
2023-05-13T06:36:24.778Z,15.74
2023-05-13T06:39:29.166Z,15.90
2023-05-13T06:42:33.047Z,15.98
2023-05-13T06:45:37.219Z,16.07
2023-05-13T06:48:41.896Z,16.33
2023-05-13T06:51:45.961Z,16.44
2023-05-13T06:54:50.300Z,16.61
2023-05-13T06:57:54.508Z,16.71
2023-05-13T07:00:58.864Z,16.84
2023-05-13T07:04:03.171Z,17.05
2023-05-13T07:07:07.260Z,17.13
2023-05-13T07:10:11.285Z,17.39
2023-05-13T07:13:15.781Z,17.68
2023-05-13T07:16:19.844Z,17.89
2023-05-13T07:19:24.359Z,17.97
2023-05-13T07:22:28.512Z,18.13
2023-05-13T07:25:32.674Z,18.13
2023-05-13T07:28:36.876Z,18.18
2023-05-13T07:31:41.140Z,18.31
2023-05-13T07:34:48.087Z,18.39
2023-05-13T07:37:52.375Z,18.47
2023-05-13T07:40:56.535Z,18.80
2023-05-13T07:44:00.667Z,19.05
2023-05-13T07:47:05.308Z,19.48
2023-05-13T07:50:09.414Z,19.81
2023-05-13T07:53:13.874Z,20.79
2023-05-13T07:56:18.277Z,22.05
2023-05-13T07:59:22.554Z,24.01
2023-05-13T08:02:27.265Z,25.55
2023-05-13T08:05:31.766Z,25.34
2023-05-13T08:08:35.804Z,26.08
2023-05-13T08:11:39.878Z,27.22
2023-05-13T08:14:44.124Z,27.08
2023-05-13T08:17:49.190Z,27.11
2023-05-13T08:20:53.211Z,26.60
2023-05-13T08:23:57.109Z,26.83
2023-05-13T08:27:01.113Z,27.08
2023-05-13T08:30:06.325Z,26.69
2023-05-13T08:33:15.611Z,26.88
2023-05-13T08:36:20.591Z,26.59
2023-05-13T08:39:24.518Z,26.09
2023-05-13T08:42:33.621Z,26.13
2023-05-13T08:45:39.294Z,26.37
2023-05-13T08:48:44.106Z,26.23
2023-05-13T08:51:48.366Z,26.09
2023-05-13T08:54:52.577Z,25.50
2023-05-13T08:57:56.634Z,25.42
2023-05-13T09:01:01.730Z,25.39
2023-05-13T09:04:09.172Z,24.55
2023-05-13T09:07:13.258Z,24.44
2023-05-13T09:10:18.107Z,23.72
2023-05-13T09:13:28.653Z,23.52
2023-05-13T09:16:33.165Z,23.59
2023-05-13T09:19:37.551Z,23.89
2023-05-13T09:22:49.492Z,23.51
2023-05-13T09:25:53.569Z,23.30
2023-05-13T09:29:19.854Z,23.33
2023-05-13T09:32:23.656Z,23.10
2023-05-13T09:35:27.534Z,22.88
2023-05-13T09:38:34.655Z,23.10
2023-05-13T09:41:39.258Z,22.63
2023-05-13T09:44:45.278Z,22.58
2023-05-13T09:47:53.014Z,22.58
2023-05-13T09:51:00.067Z,22.28
2023-05-13T09:54:06.323Z,22.35
2023-05-13T09:57:13.271Z,22.03
2023-05-13T10:00:28.851Z,21.68
2023-05-13T10:03:37.267Z,21.92
2023-05-13T10:06:41.525Z,21.95
2023-05-13T10:09:46.276Z,21.54
2023-05-13T10:12:51.628Z,20.87
2023-05-13T10:15:55.922Z,21.23
2023-05-13T10:19:01.005Z,21.14
2023-05-13T10:22:05.956Z,20.75
2023-05-13T10:25:11.458Z,21.03
2023-05-13T10:28:16.622Z,21.25
2023-05-13T10:31:20.969Z,20.95
2023-05-13T10:34:26.175Z,21.01
2023-05-13T10:37:42.864Z,21.47
2023-05-13T10:41:30.312Z,21.62
2023-05-13T10:44:35.520Z,21.57
2023-05-13T10:47:39.435Z,21.08
2023-05-13T10:50:56.620Z,20.75
2023-05-13T10:54:01.083Z,20.52
2023-05-13T10:57:05.312Z,20.83
2023-05-13T11:00:15.361Z,21.28
2023-05-13T11:03:19.932Z,21.49
2023-05-13T11:06:29.377Z,21.26
2023-05-13T11:09:38.253Z,21.33
2023-05-13T11:12:42.677Z,21.58
2023-05-13T11:15:54.561Z,21.32
2023-05-13T11:18:58.956Z,21.15
2023-05-13T11:22:10.653Z,21.45
2023-05-13T11:25:14.805Z,21.87
2023-05-13T11:28:57.001Z,21.97
2023-05-13T11:32:02.462Z,21.88
2023-05-13T11:35:07.716Z,21.49
2023-05-13T11:38:24.610Z,21.45
2023-05-13T11:41:32.508Z,21.49
2023-05-13T11:44:37.830Z,21.23
2023-05-13T11:47:42.144Z,21.23
2023-05-13T11:50:46.543Z,21.29
2023-05-13T11:53:53.201Z,21.88
2023-05-13T11:56:57.050Z,22.10
2023-05-13T12:00:06.539Z,22.23
2023-05-13T12:03:11.995Z,22.21
2023-05-13T12:06:18.259Z,22.20
2023-05-13T12:09:23.701Z,22.13
2023-05-13T12:12:29.734Z,21.64
2023-05-13T12:15:34.048Z,21.79
2023-05-13T12:18:38.321Z,21.89
2023-05-13T12:21:42.426Z,22.27
2023-05-13T12:24:46.531Z,21.95
2023-05-13T12:27:53.744Z,21.77
2023-05-13T12:31:03.136Z,21.88
2023-05-13T12:34:07.441Z,21.87
2023-05-13T12:37:13.230Z,21.85
2023-05-13T12:40:20.416Z,21.91
2023-05-13T12:43:24.851Z,21.89
2023-05-13T12:46:29.047Z,22.21
2023-05-13T12:49:34.198Z,22.52
2023-05-13T12:52:38.006Z,22.62
2023-05-13T12:55:42.452Z,22.38
2023-05-13T12:58:46.854Z,22.32
2023-05-13T13:01:51.259Z,21.81
2023-05-13T13:04:55.288Z,21.79
2023-05-13T13:08:01.155Z,21.54
2023-05-13T13:11:05.366Z,21.41
2023-05-13T13:14:09.698Z,21.21
2023-05-13T13:17:14.158Z,21.04
2023-05-13T13:20:18.451Z,20.98
2023-05-13T13:23:22.757Z,20.75
2023-05-13T13:26:27.075Z,20.85
2023-05-13T13:29:31.214Z,20.87
2023-05-13T13:32:35.994Z,21.02
2023-05-13T13:35:40.935Z,21.04
2023-05-13T13:38:44.918Z,21.28
2023-05-13T13:41:48.873Z,21.05
2023-05-13T13:44:52.761Z,21.09
2023-05-13T13:47:56.941Z,21.34
2023-05-13T13:51:01.060Z,20.95
2023-05-13T13:54:06.240Z,20.84
2023-05-13T13:57:10.408Z,20.71
2023-05-13T14:00:15.870Z,20.85
2023-05-13T14:03:20.278Z,20.83
2023-05-13T14:06:24.321Z,20.77
2023-05-13T14:09:28.425Z,20.68
2023-05-13T14:12:32.733Z,20.60
2023-05-13T14:15:39.122Z,20.49
2023-05-13T14:18:44.253Z,20.13
2023-05-13T14:21:48.497Z,20.04
2023-05-13T14:24:52.832Z,20.18
2023-05-13T14:27:56.615Z,20.16
2023-05-13T14:31:00.628Z,20.02
2023-05-13T14:34:07.794Z,20.24
2023-05-13T14:37:12.246Z,20.13
2023-05-13T14:40:16.446Z,20.07
2023-05-13T14:43:20.371Z,20.07
2023-05-13T14:46:24.228Z,20.01
2023-05-13T14:49:28.513Z,20.05
2023-05-13T14:52:32.633Z,20.11
2023-05-13T14:55:37.055Z,20.13
2023-05-13T14:58:41.354Z,19.98
2023-05-13T15:01:45.747Z,19.78
2023-05-13T15:04:51.005Z,19.92
2023-05-13T15:07:55.272Z,19.98
2023-05-13T15:11:00.761Z,20.05
2023-05-13T15:14:05.687Z,19.88
2023-05-13T15:17:12.413Z,19.81
2023-05-13T15:20:16.520Z,19.66
2023-05-13T15:23:20.521Z,19.68
2023-05-13T15:26:24.888Z,19.72
2023-05-13T15:29:29.590Z,19.78
2023-05-13T15:32:33.601Z,19.88
2023-05-13T15:35:39.105Z,19.93
2023-05-13T15:38:43.691Z,19.87
2023-05-13T15:41:48.044Z,19.84
2023-05-13T15:44:52.003Z,19.67
2023-05-13T15:47:55.939Z,19.49
2023-05-13T15:51:00.688Z,19.47
2023-05-13T15:54:04.949Z,19.50
2023-05-13T15:57:09.292Z,19.49
2023-05-13T16:00:14.310Z,19.48
2023-05-13T16:03:18.061Z,19.47
2023-05-13T16:06:22.186Z,19.37
2023-05-13T16:09:26.200Z,19.18
2023-05-13T16:12:31.390Z,19.27
2023-05-13T16:15:35.621Z,19.27
2023-05-13T16:18:39.928Z,19.29
2023-05-13T16:21:44.312Z,19.34
2023-05-13T16:24:48.153Z,19.23
2023-05-13T16:27:52.241Z,19.23
2023-05-13T16:30:58.551Z,19.09
2023-05-13T16:34:03.047Z,19.10
2023-05-13T16:37:06.835Z,19.17
2023-05-13T16:40:11.798Z,19.17
2023-05-13T16:43:16.007Z,19.28
2023-05-13T16:46:20.230Z,19.23
2023-05-13T16:49:24.883Z,19.10
2023-05-13T16:52:32.030Z,19.19
2023-05-13T16:55:36.073Z,19.27
2023-05-13T16:58:40.519Z,19.22
2023-05-13T17:01:44.420Z,19.16
2023-05-13T17:04:48.446Z,19.17
2023-05-13T17:07:52.252Z,19.21
2023-05-13T17:10:55.953Z,19.15
2023-05-13T17:14:00.272Z,19.23
2023-05-13T17:17:04.935Z,19.08
2023-05-13T17:20:10.059Z,18.99
2023-05-13T17:23:16.700Z,18.92
2023-05-13T17:26:21.924Z,18.79
2023-05-13T17:29:26.076Z,18.69
2023-05-13T17:32:31.661Z,18.68
2023-05-13T17:35:35.902Z,18.69
2023-05-13T17:38:40.102Z,18.49
2023-05-13T17:41:43.889Z,18.37
2023-05-13T17:44:48.087Z,18.25
2023-05-13T17:47:52.651Z,18.22
2023-05-13T17:50:57.425Z,18.09
2023-05-13T17:54:01.416Z,17.93
2023-05-13T17:57:05.575Z,17.90
2023-05-13T18:00:10.409Z,17.87
2023-05-13T18:03:14.613Z,17.85
2023-05-13T18:06:18.665Z,17.88
2023-05-13T18:09:22.769Z,17.80
2023-05-13T18:12:26.520Z,17.76
2023-05-13T18:15:30.649Z,17.81
2023-05-13T18:18:34.877Z,17.67
2023-05-13T18:21:39.437Z,17.62
2023-05-13T18:24:43.600Z,17.56
2023-05-13T18:27:50.052Z,17.47
2023-05-13T18:30:53.948Z,17.45
2023-05-13T18:33:57.969Z,17.48
2023-05-13T18:37:04.268Z,17.44
2023-05-13T18:40:08.934Z,17.36
2023-05-13T18:43:13.552Z,17.35
2023-05-13T18:46:17.610Z,17.32
2023-05-13T18:49:24.730Z,17.28
2023-05-13T18:52:29.010Z,17.30
2023-05-13T18:55:33.464Z,17.23
2023-05-13T18:58:37.695Z,17.20
2023-05-13T19:01:42.256Z,17.15
2023-05-13T19:04:46.202Z,17.22
2023-05-13T19:07:50.743Z,17.17
2023-05-13T19:10:55.078Z,17.13
2023-05-13T19:13:58.926Z,17.11
2023-05-13T19:17:03.538Z,17.12
2023-05-13T19:20:13.427Z,17.15
2023-05-13T19:23:17.691Z,17.22
2023-05-13T19:26:22.240Z,17.10
2023-05-13T19:29:26.789Z,17.05
2023-05-13T19:32:31.028Z,16.88
2023-05-13T19:35:36.058Z,16.83
2023-05-13T19:38:40.591Z,16.87
2023-05-13T19:41:47.185Z,16.86
2023-05-13T19:44:51.057Z,16.81
2023-05-13T19:47:57.895Z,16.78
2023-05-13T19:51:02.584Z,16.74
2023-05-13T19:54:09.473Z,16.75
2023-05-13T19:57:13.568Z,16.71
2023-05-13T20:00:17.816Z,16.80
2023-05-13T20:03:21.604Z,16.81
2023-05-13T20:06:26.674Z,16.72
2023-05-13T20:09:31.041Z,16.66
2023-05-13T20:12:35.480Z,16.65
2023-05-13T20:15:41.607Z,16.67
2023-05-13T20:18:45.852Z,16.57
2023-05-13T20:21:49.843Z,16.64
2023-05-13T20:24:54.424Z,16.62
2023-05-13T20:27:58.721Z,16.55
2023-05-13T20:31:03.235Z,16.48
2023-05-13T20:34:07.254Z,16.47
2023-05-13T20:37:11.237Z,16.43
2023-05-13T20:40:15.520Z,16.44
2023-05-13T20:43:19.749Z,16.43
2023-05-13T20:46:23.537Z,16.43
2023-05-13T20:49:27.611Z,16.36
2023-05-13T20:52:31.803Z,16.31
2023-05-13T20:55:36.029Z,16.32
2023-05-13T20:58:39.975Z,16.35
2023-05-13T21:01:47.376Z,16.31
2023-05-13T21:04:51.309Z,16.33
2023-05-13T21:07:55.528Z,16.29
2023-05-13T21:10:59.503Z,16.26
2023-05-13T21:14:03.589Z,16.16
2023-05-13T21:17:07.791Z,16.12
2023-05-13T21:20:12.524Z,16.18
2023-05-13T21:23:19.326Z,16.05
2023-05-13T21:26:24.825Z,16.06
2023-05-13T21:29:30.111Z,16.00
2023-05-13T21:32:34.248Z,15.96
2023-05-13T21:35:38.295Z,15.91
2023-05-13T21:38:42.298Z,15.85
2023-05-13T21:41:47.341Z,15.83
2023-05-13T21:44:51.526Z,15.82
2023-05-13T21:47:55.913Z,15.74
2023-05-13T21:51:00.335Z,15.65
2023-05-13T21:54:04.861Z,15.64
2023-05-13T21:57:09.226Z,15.69
2023-05-13T22:00:18.050Z,15.71
2023-05-13T22:03:21.992Z,15.56
2023-05-13T22:06:26.291Z,15.63
2023-05-13T22:09:31.613Z,15.53
2023-05-13T22:12:35.838Z,15.52
2023-05-13T22:15:39.764Z,15.59
2023-05-13T22:18:44.009Z,15.58
2023-05-13T22:21:48.201Z,15.55
2023-05-13T22:24:52.388Z,15.48
2023-05-13T22:27:56.500Z,15.54
2023-05-13T22:31:01.072Z,15.53
2023-05-13T22:34:04.847Z,15.47
2023-05-13T22:37:08.786Z,15.36
2023-05-13T22:40:13.354Z,15.37
2023-05-13T22:43:17.192Z,15.43
2023-05-13T22:46:21.332Z,15.34
2023-05-13T22:49:25.277Z,15.22
2023-05-13T22:52:29.670Z,15.26
2023-05-13T22:55:33.811Z,15.16
2023-05-13T22:58:37.706Z,15.19
2023-05-13T23:01:41.761Z,15.24
2023-05-13T23:04:45.976Z,15.02
2023-05-13T23:07:50.499Z,15.05
2023-05-13T23:10:55.952Z,15.02
2023-05-13T23:13:59.816Z,15.02
2023-05-13T23:17:03.678Z,14.99
2023-05-13T23:20:08.483Z,14.99
2023-05-13T23:23:12.929Z,15.06
2023-05-13T23:26:17.094Z,15.13
2023-05-13T23:29:21.062Z,15.10
2023-05-13T23:32:25.836Z,15.03
2023-05-13T23:35:30.557Z,14.95
2023-05-13T23:38:34.670Z,14.98
2023-05-13T23:41:38.488Z,14.92
2023-05-13T23:44:42.302Z,14.94
2023-05-13T23:47:46.283Z,14.91
2023-05-13T23:50:50.584Z,15.01
2023-05-13T23:53:55.405Z,14.91
2023-05-13T23:56:59.405Z,14.97
